Time;durP1;ratioP1;P1;durP2;ratioP2;P2;SDS_P1;SDS_P2;PMS_P1;PMS_P2;Temp;Humidity;BMP_temperature;BMP_pressure;BME280_temperature;BME280_humidity;BME280_pressure;Samples;Min_cycle;Max_cycle;Signal;HPM_P1;HPM_P2
2023/08/21 00:00:24;;;;;;;;;1.67;1.67;;;;;;;;5060058;28;46112;-75
2023/08/21 00:02:49;;;;;;;;;3.67;2.00;;;;;;;;5060095;28;45362;-75
2023/08/21 00:05:14;;;;;;;;;2.33;1.67;;;;;;;;5041986;28;45273;-75
2023/08/21 00:07:40;;;;;;;;;2.67;2.67;;;;;;;;5059985;28;45470;-75
2023/08/21 00:10:05;;;;;;;;;1.00;1.00;;;;;;;;5059480;28;45373;-75
2023/08/21 00:12:30;;;;;;;;;2.00;0.67;;;;;;;;5060013;28;45316;-75
2023/08/21 00:14:55;;;;;;;;;2.00;1.00;;;;;;;;5060058;28;45559;-76
2023/08/21 00:17:21;;;;;;;;;0.00;0.00;;;;;;;;5059870;28;45319;-75
2023/08/21 00:19:46;;;;;;;;;2.00;2.00;;;;;;;;5059894;28;45323;-75
2023/08/21 00:22:11;;;;;;;;;2.00;2.00;;;;;;;;5059768;28;45341;-75
2023/08/21 00:24:36;;;;;;;;;0.00;0.00;;;;;;;;5041652;28;45336;-74
2023/08/21 00:27:03;;;;;;;;;1.33;1.33;;;;;;;;5059815;28;45300;-75
2023/08/21 00:29:28;;;;;;;;;2.00;2.00;;;;;;;;5079525;27;45303;-75
2023/08/21 00:31:53;;;;;;;;;5.00;3.00;;;;;;;;5100343;27;45363;-75
2023/08/21 00:34:19;;;;;;;;;1.00;1.00;;;;;;;;5082235;27;45296;-75
2023/08/21 00:36:44;;;;;;;;;1.00;1.00;;;;;;;;5100258;27;45374;-75
2023/08/21 00:39:09;;;;;;;;;0.67;0.67;;;;;;;;5100087;27;45274;-75
2023/08/21 00:41:34;;;;;;;;;3.00;2.33;;;;;;;;5099982;27;45438;-75
2023/08/21 00:43:59;;;;;;;;;1.67;1.67;;;;;;;;5100347;27;45392;-74
2023/08/21 00:46:25;;;;;;;;;1.33;1.33;;;;;;;;5081900;27;45933;-76
2023/08/21 00:48:50;;;;;;;;;2.33;2.33;;;;;;;;5100187;27;46488;-75
2023/08/21 00:51:16;;;;;;;;;4.00;2.00;;;;;;;;5100046;27;45287;-75
2023/08/21 00:53:41;;;;;;;;;2.00;1.00;;;;;;;;5099920;27;45253;-75
2023/08/21 00:56:07;;;;;;;;;3.00;2.75;;;;;;;;5100189;27;45551;-75
2023/08/21 00:58:32;;;;;;;;;2.00;1.00;;;;;;;;5099991;27;46237;-76
2023/08/21 01:00:58;;;;;;;;;2.00;2.00;;;;;;;;5081545;27;45334;-75
2023/08/21 01:03:24;;;;;;;;;1.25;1.00;;;;;;;;5100252;27;45350;-75
2023/08/21 01:05:49;;;;;;;;;1.75;1.75;;;;;;;;5099708;27;45526;-75
2023/08/21 01:08:19;;;;;;;;;1.00;1.00;;;;;;;;5099669;27;45310;-76
2023/08/21 01:10:44;;;;;;;;;2.00;1.00;;;;;;;;5081567;27;45389;-75
2023/08/21 01:13:14;;;;;;;;;3.00;1.75;;;;;;;;5100133;27;45468;-75
2023/08/21 01:15:40;;;;;;;;;2.33;2.33;;;;;;;;5081375;27;47020;-75
2023/08/21 01:18:06;;;;;;;;;0.00;0.00;;;;;;;;5081312;27;47286;-75
2023/08/21 01:20:31;;;;;;;;;2.00;2.00;;;;;;;;5081216;27;45322;-74
2023/08/21 01:22:57;;;;;;;;;2.00;2.00;;;;;;;;5081566;27;45399;-76
2023/08/21 01:25:22;;;;;;;;;5.33;2.00;;;;;;;;5099570;27;45340;-75
2023/08/21 01:27:49;;;;;;;;;3.67;3.33;;;;;;;;5081328;27;48492;-75
2023/08/21 01:30:15;;;;;;;;;1.00;1.00;;;;;;;;5082897;27;45320;-75
2023/08/21 01:33:02;;;;;;;;;2.00;1.33;;;;;;;;5078857;28;45335;-75
2023/08/21 01:35:28;;;;;;;;;1.67;1.67;;;;;;;;5078040;28;45592;-75
2023/08/21 01:37:54;;;;;;;;;2.00;1.00;;;;;;;;5059327;28;47300;-75
2023/08/21 01:40:23;;;;;;;;;3.00;1.67;;;;;;;;5078564;28;45249;-75
2023/08/21 01:42:48;;;;;;;;;1.33;1.33;;;;;;;;5078896;27;45310;-75
2023/08/21 01:45:13;;;;;;;;;1.50;1.25;;;;;;;;5063854;28;47593;-75
2023/08/21 01:47:38;;;;;;;;;3.75;2.75;;;;;;;;5082238;28;45297;-75
2023/08/21 01:50:04;;;;;;;;;2.00;2.00;;;;;;;;5082100;28;45367;-75
2023/08/21 01:52:29;;;;;;;;;1.33;1.33;;;;;;;;5082279;28;45301;-75
2023/08/21 01:54:54;;;;;;;;;2.00;2.00;;;;;;;;5082196;28;45277;-75
2023/08/21 01:57:19;;;;;;;;;2.67;1.33;;;;;;;;5082210;28;46220;-75
2023/08/21 01:59:44;;;;;;;;;2.67;2.67;;;;;;;;5082146;28;45457;-75
2023/08/21 02:02:09;;;;;;;;;1.50;1.50;;;;;;;;5082404;28;45335;-75
2023/08/21 02:04:35;;;;;;;;;3.00;2.00;;;;;;;;5063713;28;46220;-75
2023/08/21 02:07:00;;;;;;;;;2.00;2.00;;;;;;;;5082069;28;46347;-75
2023/08/21 02:09:25;;;;;;;;;2.00;1.00;;;;;;;;5081952;28;45326;-75
2023/08/21 02:11:51;;;;;;;;;1.33;1.33;;;;;;;;5082239;28;45401;-75
2023/08/21 02:14:16;;;;;;;;;3.00;2.00;;;;;;;;5082141;28;45540;-75
2023/08/21 02:16:41;;;;;;;;;3.00;2.00;;;;;;;;5063496;28;47335;-75
2023/08/21 02:19:06;;;;;;;;;1.67;1.67;;;;;;;;5063580;28;45863;-75
2023/08/21 02:21:31;;;;;;;;;3.67;2.00;;;;;;;;5063772;28;45343;-75
2023/08/21 02:23:56;;;;;;;;;1.33;1.00;;;;;;;;5081755;28;45296;-76
2023/08/21 02:26:22;;;;;;;;;1.75;1.00;;;;;;;;5081988;28;46290;-75
2023/08/21 02:28:47;;;;;;;;;2.75;2.75;;;;;;;;5086167;27;45208;-75
2023/08/21 02:31:12;;;;;;;;;1.00;1.00;;;;;;;;5102540;27;45267;-75
2023/08/21 02:33:38;;;;;;;;;2.50;2.50;;;;;;;;5102303;27;45441;-75
2023/08/21 02:36:03;;;;;;;;;1.00;1.00;;;;;;;;5102082;27;45330;-75
2023/08/21 02:38:29;;;;;;;;;2.00;1.33;;;;;;;;5083389;27;45292;-75
2023/08/21 02:40:54;;;;;;;;;3.00;2.00;;;;;;;;5102177;27;45294;-75
2023/08/21 02:43:19;;;;;;;;;1.75;1.75;;;;;;;;5101851;27;45311;-75
2023/08/21 02:45:45;;;;;;;;;1.00;1.00;;;;;;;;5101985;27;46043;-74
2023/08/21 02:48:10;;;;;;;;;1.75;1.75;;;;;;;;5101986;27;45285;-75
2023/08/21 02:50:35;;;;;;;;;3.67;1.67;;;;;;;;5102068;27;45461;-75
2023/08/21 02:53:00;;;;;;;;;2.67;2.67;;;;;;;;5083188;27;46141;-75
2023/08/21 02:55:25;;;;;;;;;1.00;1.00;;;;;;;;5100606;27;45223;-75
2023/08/21 02:57:51;;;;;;;;;0.67;0.67;;;;;;;;5101630;27;45415;-75
2023/08/21 03:00:16;;;;;;;;;1.00;1.00;;;;;;;;5083592;27;45371;-75
2023/08/21 03:02:43;;;;;;;;;1.00;1.00;;;;;;;;5101750;27;45302;-75
2023/08/21 03:05:09;;;;;;;;;2.67;1.00;;;;;;;;5083287;27;48233;-74
2023/08/21 03:07:34;;;;;;;;;3.00;1.00;;;;;;;;5083085;27;45335;-75
2023/08/21 03:10:01;;;;;;;;;1.33;1.33;;;;;;;;5101627;27;45236;-75
2023/08/21 03:12:27;;;;;;;;;1.67;1.67;;;;;;;;5101426;27;45375;-74
2023/08/21 03:14:52;;;;;;;;;2.67;1.67;;;;;;;;5101620;27;45457;-75
2023/08/21 03:17:17;;;;;;;;;1.33;1.33;;;;;;;;5101716;27;45567;-75
2023/08/21 03:19:42;;;;;;;;;3.00;3.00;;;;;;;;5101621;27;44839;-75
2023/08/21 03:22:08;;;;;;;;;3.67;3.00;;;;;;;;5101429;27;45468;-75
2023/08/21 03:24:33;;;;;;;;;3.00;2.00;;;;;;;;5101217;27;46153;-75
2023/08/21 03:26:58;;;;;;;;;2.67;2.67;;;;;;;;5101406;27;45414;-75
2023/08/21 03:29:23;;;;;;;;;1.00;1.00;;;;;;;;5073608;28;45371;-75
2023/08/21 03:31:49;;;;;;;;;2.67;2.67;;;;;;;;5080822;28;45319;-75
2023/08/21 03:34:14;;;;;;;;;2.33;2.00;;;;;;;;5080785;28;45304;-75
2023/08/21 03:36:39;;;;;;;;;3.00;3.00;;;;;;;;5062359;28;46097;-74
2023/08/21 03:39:05;;;;;;;;;2.67;2.00;;;;;;;;5080594;28;45303;-75
2023/08/21 03:41:31;;;;;;;;;1.67;1.67;;;;;;;;5061958;28;46498;-74
2023/08/21 03:43:56;;;;;;;;;2.00;2.00;;;;;;;;5080462;28;45329;-75
2023/08/21 03:46:21;;;;;;;;;3.00;3.00;;;;;;;;5080050;28;45432;-75
2023/08/21 03:48:46;;;;;;;;;4.00;3.00;;;;;;;;5080321;28;45307;-75
2023/08/21 03:51:11;;;;;;;;;4.00;3.00;;;;;;;;5080379;28;45291;-75
2023/08/21 03:53:37;;;;;;;;;5.00;3.00;;;;;;;;5061778;28;47544;-75
2023/08/21 03:56:02;;;;;;;;;3.00;1.00;;;;;;;;5080660;28;45485;-75
2023/08/21 03:58:27;;;;;;;;;1.33;1.33;;;;;;;;5080499;28;45442;-75
2023/08/21 04:00:53;;;;;;;;;4.00;2.00;;;;;;;;5062069;28;45858;-75
2023/08/21 04:03:18;;;;;;;;;3.00;3.00;;;;;;;;5080294;28;45323;-75
2023/08/21 04:05:43;;;;;;;;;2.67;2.33;;;;;;;;5080132;28;45298;-75
2023/08/21 04:08:09;;;;;;;;;2.00;1.67;;;;;;;;5061724;28;45557;-75
2023/08/21 04:10:34;;;;;;;;;1.33;1.33;;;;;;;;5080297;28;45271;-75
2023/08/21 04:12:59;;;;;;;;;1.33;1.33;;;;;;;;5080192;28;45344;-75
2023/08/21 04:15:25;;;;;;;;;1.33;0.00;;;;;;;;5080177;28;45312;-75
2023/08/21 04:17:50;;;;;;;;;1.67;1.67;;;;;;;;5080247;28;45304;-75
2023/08/21 04:20:15;;;;;;;;;2.67;2.67;;;;;;;;5079900;28;45260;-75
2023/08/21 04:22:41;;;;;;;;;2.00;2.00;;;;;;;;5080048;28;45925;-75
2023/08/21 04:25:06;;;;;;;;;6.00;2.67;;;;;;;;5061683;28;45324;-74
2023/08/21 04:27:32;;;;;;;;;3.00;3.00;;;;;;;;5080180;28;45370;-75
2023/08/21 04:29:59;;;;;;;;;2.00;2.00;;;;;;;;5093987;27;45498;-74
2023/08/21 04:32:24;;;;;;;;;3.00;3.00;;;;;;;;5100142;27;45318;-75
2023/08/21 04:34:49;;;;;;;;;3.00;3.00;;;;;;;;5100295;27;45277;-75
2023/08/21 04:37:15;;;;;;;;;2.00;2.00;;;;;;;;5100458;27;45309;-75
2023/08/21 04:39:40;;;;;;;;;2.67;2.67;;;;;;;;5099813;27;45283;-75
2023/08/21 04:42:05;;;;;;;;;2.67;2.67;;;;;;;;5100104;27;46406;-75
2023/08/21 04:44:30;;;;;;;;;2.00;2.00;;;;;;;;5081940;27;45322;-75
2023/08/21 04:46:55;;;;;;;;;2.00;2.00;;;;;;;;5100460;27;45149;-75
2023/08/21 04:49:20;;;;;;;;;2.00;2.00;;;;;;;;5100200;27;45196;-75
2023/08/21 04:51:46;;;;;;;;;5.00;3.33;;;;;;;;5099934;27;46242;-74
2023/08/21 04:54:11;;;;;;;;;3.00;3.00;;;;;;;;5099815;27;45394;-75
2023/08/21 04:56:36;;;;;;;;;1.00;1.00;;;;;;;;5100304;27;45330;-75
2023/08/21 04:59:02;;;;;;;;;3.00;3.00;;;;;;;;5099948;27;45296;-74
2023/08/21 05:01:27;;;;;;;;;5.33;3.33;;;;;;;;5081039;27;47269;-75
2023/08/21 05:03:54;;;;;;;;;4.33;3.67;;;;;;;;5067997;28;45765;-75
2023/08/21 05:06:19;;;;;;;;;3.67;3.67;;;;;;;;5068170;28;45485;-76
2023/08/21 05:08:45;;;;;;;;;5.67;4.00;;;;;;;;5055367;28;46127;-75
2023/08/21 05:11:10;;;;;;;;;2.00;2.00;;;;;;;;5075348;28;46296;-75
2023/08/21 05:13:35;;;;;;;;;4.33;3.00;;;;;;;;5079529;28;45288;-75
2023/08/21 05:16:01;;;;;;;;;6.67;4.00;;;;;;;;5079520;28;45272;-75
2023/08/21 05:18:26;;;;;;;;;3.67;2.00;;;;;;;;5080022;28;45330;-75
2023/08/21 05:20:53;;;;;;;;;4.00;3.00;;;;;;;;5082806;28;45333;-75
2023/08/21 05:23:18;;;;;;;;;2.00;2.00;;;;;;;;5064532;28;45529;-74
2023/08/21 05:25:44;;;;;;;;;3.00;3.00;;;;;;;;5078613;28;45490;-75
2023/08/21 05:28:10;;;;;;;;;4.67;4.67;;;;;;;;5062471;28;45687;-74
2023/08/21 05:30:35;;;;;;;;;4.67;4.00;;;;;;;;5082642;27;46191;-74
2023/08/21 05:33:01;;;;;;;;;7.00;6.00;;;;;;;;5103220;27;45226;-74
2023/08/21 05:35:26;;;;;;;;;4.00;3.00;;;;;;;;5103410;27;45237;-74
2023/08/21 05:37:51;;;;;;;;;1.67;1.67;;;;;;;;5102801;27;45319;-75
2023/08/21 05:40:16;;;;;;;;;4.00;4.00;;;;;;;;5084695;27;47235;-75
2023/08/21 05:42:41;;;;;;;;;4.00;4.00;;;;;;;;5102844;27;45331;-75
2023/08/21 05:45:07;;;;;;;;;4.00;2.33;;;;;;;;5103162;27;45303;-75
2023/08/21 05:47:32;;;;;;;;;3.00;2.00;;;;;;;;5102906;27;45246;-74
2023/08/21 05:49:57;;;;;;;;;2.00;2.00;;;;;;;;5102592;27;46718;-74
2023/08/21 05:52:22;;;;;;;;;3.00;3.00;;;;;;;;5101908;27;45316;-76
2023/08/21 05:54:48;;;;;;;;;3.00;3.00;;;;;;;;5102682;27;45287;-76
2023/08/21 05:57:13;;;;;;;;;2.67;1.67;;;;;;;;5102911;27;45281;-75
2023/08/21 05:59:43;;;;;;;;;3.33;3.33;;;;;;;;5086309;27;45338;-76
2023/08/21 06:02:08;;;;;;;;;4.00;4.00;;;;;;;;5078018;28;45440;-74
2023/08/21 06:04:33;;;;;;;;;5.67;5.00;;;;;;;;5063144;28;45245;-74
2023/08/21 06:06:58;;;;;;;;;5.67;5.00;;;;;;;;5080681;28;45295;-74
2023/08/21 06:09:24;;;;;;;;;16.00;14.33;;;;;;;;5062780;27;48094;-74
2023/08/21 06:11:49;;;;;;;;;6.33;6.33;;;;;;;;5081972;28;45501;-74
2023/08/21 06:14:14;;;;;;;;;3.33;3.33;;;;;;;;5079287;27;45406;-74
2023/08/21 06:16:39;;;;;;;;;8.00;5.67;;;;;;;;5082024;28;45320;-74
2023/08/21 06:19:05;;;;;;;;;0.33;0.00;;;;;;;;5090712;28;45874;-75
2023/08/21 06:21:30;;;;;;;;;1.33;1.33;;;;;;;;5092579;27;45267;-75
2023/08/21 06:23:55;;;;;;;;;2.00;2.00;;;;;;;;5071883;28;45281;-76
2023/08/21 06:26:20;;;;;;;;;1.75;1.00;;;;;;;;5091441;28;45599;-77
2023/08/21 06:28:45;;;;;;;;;1.50;1.50;;;;;;;;5096243;27;45293;-75
2023/08/21 06:31:10;;;;;;;;;2.00;2.00;;;;;;;;5107754;27;45367;-77
2023/08/21 06:33:35;;;;;;;;;1.00;1.00;;;;;;;;5094624;28;44772;-77
2023/08/21 06:36:01;;;;;;;;;4.33;4.33;;;;;;;;5095407;27;45297;-77
2023/08/21 06:38:26;;;;;;;;;5.00;3.33;;;;;;;;5096902;28;45018;-75
2023/08/21 06:40:51;;;;;;;;;1.00;1.00;;;;;;;;5080738;28;45262;-75
2023/08/21 06:43:17;;;;;;;;;12.67;11.00;;;;;;;;5097392;28;45268;-76
2023/08/21 06:45:42;;;;;;;;;2.25;2.25;;;;;;;;5079915;28;45862;-75
2023/08/21 06:48:07;;;;;;;;;1.00;1.00;;;;;;;;5089037;28;45212;-75
2023/08/21 06:50:32;;;;;;;;;0.50;0.50;;;;;;;;5088243;27;45027;-75
2023/08/21 06:52:57;;;;;;;;;0.00;0.00;;;;;;;;5098657;28;44755;-75
2023/08/21 06:55:23;;;;;;;;;1.00;1.00;;;;;;;;5101569;28;44690;-75
2023/08/21 06:57:48;;;;;;;;;0.00;0.00;;;;;;;;5098316;28;46515;-76
2023/08/21 07:00:13;;;;;;;;;0.00;0.00;;;;;;;;5097485;28;44614;-77
2023/08/21 07:02:38;;;;;;;;;4.33;4.33;;;;;;;;5094105;27;44661;-78
2023/08/21 07:05:04;;;;;;;;;20.33;18.00;;;;;;;;5091867;27;45454;-77
2023/08/21 07:07:29;;;;;;;;;15.33;14.33;;;;;;;;5067441;28;45287;-78
2023/08/21 07:09:54;;;;;;;;;0.00;0.00;;;;;;;;5061940;28;45705;-77
2023/08/21 07:12:19;;;;;;;;;1.00;1.00;;;;;;;;5086553;28;45315;-76
2023/08/21 07:14:44;;;;;;;;;1.00;0.00;;;;;;;;5101058;27;45355;-77
2023/08/21 07:17:10;;;;;;;;;0.00;0.00;;;;;;;;5086167;27;47103;-79
2023/08/21 07:19:35;;;;;;;;;0.00;0.00;;;;;;;;5091959;27;45228;-78
2023/08/21 07:22:00;;;;;;;;;0.00;0.00;;;;;;;;5065087;28;45759;-78
2023/08/21 07:24:25;;;;;;;;;1.00;1.00;;;;;;;;5079355;27;46178;-79
2023/08/21 07:26:50;;;;;;;;;1.75;1.75;;;;;;;;5091105;27;45287;-78
2023/08/21 07:29:16;;;;;;;;;0.50;0.50;;;;;;;;5065654;28;45422;-78
2023/08/21 07:31:41;;;;;;;;;0.00;0.00;;;;;;;;5085943;28;45402;-78
2023/08/21 07:34:06;;;;;;;;;0.00;0.00;;;;;;;;5088449;27;45604;-77
2023/08/21 07:36:32;;;;;;;;;0.00;0.00;;;;;;;;5082808;28;46299;-75
2023/08/21 07:38:57;;;;;;;;;1.00;0.00;;;;;;;;5080508;27;45354;-76
2023/08/21 07:41:22;;;;;;;;;1.00;0.25;;;;;;;;5064897;28;45312;-76
2023/08/21 07:43:47;;;;;;;;;0.25;0.00;;;;;;;;5064758;28;45843;-76
2023/08/21 07:46:15;;;;;;;;;0.00;0.00;;;;;;;;5080448;28;45410;-77
2023/08/21 07:48:40;;;;;;;;;0.50;0.00;;;;;;;;5080529;28;45328;-75
2023/08/21 07:51:06;;;;;;;;;0.00;0.00;;;;;;;;5081333;28;45301;-76
2023/08/21 07:53:31;;;;;;;;;0.00;0.00;;;;;;;;5080948;28;45355;-76
2023/08/21 07:55:56;;;;;;;;;0.00;0.00;;;;;;;;5072924;28;46543;-76
2023/08/21 07:58:21;;;;;;;;;1.25;0.00;;;;;;;;5089146;28;45476;-77
2023/08/21 08:00:48;;;;;;;;;0.00;0.00;;;;;;;;5097140;28;45391;-78
2023/08/21 08:03:14;;;;;;;;;0.00;0.00;;;;;;;;5099762;27;45315;-76
2023/08/21 08:05:39;;;;;;;;;1.00;1.00;;;;;;;;5080775;28;47003;-76
2023/08/21 08:08:05;;;;;;;;;1.75;1.75;;;;;;;;5075407;28;45514;-74
2023/08/21 08:10:30;;;;;;;;;0.00;0.00;;;;;;;;5089527;28;45216;-77
2023/08/21 08:12:55;;;;;;;;;0.00;0.00;;;;;;;;5096786;28;45454;-78
2023/08/21 08:15:21;;;;;;;;;0.00;0.00;;;;;;;;5080167;28;47243;-77
2023/08/21 08:17:46;;;;;;;;;1.50;0.25;;;;;;;;5097708;27;44726;-77
2023/08/21 08:20:12;;;;;;;;;1.00;1.00;;;;;;;;5068407;28;45250;-77
2023/08/21 08:22:37;;;;;;;;;0.50;0.50;;;;;;;;5060620;27;45945;-77
2023/08/21 08:25:03;;;;;;;;;1.75;0.75;;;;;;;;5084397;27;46617;-82
2023/08/21 08:27:28;;;;;;;;;0.00;0.00;;;;;;;;5072609;27;45477;-78
2023/08/21 08:29:53;;;;;;;;;1.00;1.00;;;;;;;;5069291;27;45557;-78
2023/08/21 08:32:19;;;;;;;;;1.00;1.00;;;;;;;;5062023;27;45276;-78
2023/08/21 08:34:46;;;;;;;;;1.00;1.00;;;;;;;;5078044;28;45267;-79
2023/08/21 08:37:11;;;;;;;;;1.00;1.00;;;;;;;;5062324;27;45369;-78
2023/08/21 08:39:36;;;;;;;;;1.00;1.00;;;;;;;;5071190;28;45203;-78
2023/08/21 08:42:03;;;;;;;;;0.00;0.00;;;;;;;;5048381;27;47481;-78
2023/08/21 08:44:29;;;;;;;;;3.50;2.00;;;;;;;;5100263;27;46266;-77
2023/08/21 08:46:55;;;;;;;;;0.00;0.00;;;;;;;;5080438;28;45399;-78
2023/08/21 08:49:20;;;;;;;;;2.25;2.25;;;;;;;;5072145;27;45445;-77
2023/08/21 08:51:46;;;;;;;;;1.33;1.33;;;;;;;;5053286;28;45376;-80
2023/08/21 08:54:12;;;;;;;;;1.75;1.75;;;;;;;;5077567;28;45692;-77
2023/08/21 08:56:37;;;;;;;;;1.00;1.00;;;;;;;;5073705;28;45502;-77
2023/08/21 08:59:03;;;;;;;;;2.00;1.33;;;;;;;;5049262;28;45297;-78
2023/08/21 09:01:28;;;;;;;;;2.00;2.00;;;;;;;;5061216;28;45380;-78
2023/08/21 09:03:54;;;;;;;;;1.25;1.25;;;;;;;;5083140;28;46747;-78
2023/08/21 09:06:19;;;;;;;;;1.00;1.00;;;;;;;;5056031;28;45390;-78
2023/08/21 09:09:04;;;;;;;;;3.25;2.00;;;;;;;;5067470;28;45268;-78
2023/08/21 09:11:30;;;;;;;;;3.33;2.00;;;;;;;;5072229;28;45583;-79
2023/08/21 09:13:55;;;;;;;;;2.50;2.50;;;;;;;;5044779;28;47058;-78
2023/08/21 09:16:21;;;;;;;;;1.00;1.00;;;;;;;;5074945;28;45340;-79
2023/08/21 09:18:47;;;;;;;;;1.25;1.25;;;;;;;;5071885;28;45170;-79
2023/08/21 09:21:15;;;;;;;;;3.00;2.00;;;;;;;;5051206;28;45600;-78
2023/08/21 09:23:40;;;;;;;;;1.50;1.00;;;;;;;;5055620;28;48433;-79
2023/08/21 09:26:06;;;;;;;;;1.00;1.00;;;;;;;;5044829;28;45430;-79
2023/08/21 09:28:31;;;;;;;;;1.00;1.00;;;;;;;;5083985;27;45579;-77
2023/08/21 09:30:58;;;;;;;;;1.00;1.00;;;;;;;;5085033;27;45423;-78
2023/08/21 09:33:23;;;;;;;;;3.00;3.00;;;;;;;;5085705;28;46562;-79
2023/08/21 09:35:52;;;;;;;;;3.75;3.75;;;;;;;;5082564;28;45307;-77
2023/08/21 09:38:18;;;;;;;;;5.00;3.00;;;;;;;;5063811;28;45271;-78
2023/08/21 09:40:51;;;;;;;;;2.50;2.50;;;;;;;;5083856;28;45761;-78
2023/08/21 09:43:16;;;;;;;;;1.00;1.00;;;;;;;;5058344;28;47543;-77
2023/08/21 09:45:45;;;;;;;;;2.25;2.25;;;;;;;;5053131;28;45550;-76
2023/08/21 09:48:10;;;;;;;;;5.50;3.50;;;;;;;;5081909;28;45351;-76
2023/08/21 09:50:38;;;;;;;;;3.25;2.00;;;;;;;;5064085;28;45233;-76
2023/08/21 09:53:05;;;;;;;;;1.50;1.00;;;;;;;;5067133;28;46143;-77
2023/08/21 09:55:32;;;;;;;;;4.00;1.75;;;;;;;;5051329;28;45355;-79
2023/08/21 09:57:58;;;;;;;;;0.75;0.75;;;;;;;;5064813;28;45403;-80
2023/08/21 10:00:26;;;;;;;;;1.50;1.50;;;;;;;;5046332;28;47338;-77
2023/08/21 10:02:53;;;;;;;;;2.00;2.00;;;;;;;;5082034;28;46387;-78
2023/08/21 10:05:19;;;;;;;;;2.00;2.00;;;;;;;;5081339;28;45354;-80
2023/08/21 10:07:47;;;;;;;;;2.50;2.00;;;;;;;;5082274;28;45460;-77
2023/08/21 10:10:12;;;;;;;;;1.00;1.00;;;;;;;;5081992;28;45462;-77
2023/08/21 10:12:37;;;;;;;;;2.00;2.00;;;;;;;;5083714;28;46121;-80
2023/08/21 10:15:03;;;;;;;;;15.33;12.33;;;;;;;;5066137;28;45977;-80
2023/08/21 10:17:31;;;;;;;;;1.25;0.75;;;;;;;;5084765;28;45319;-81
2023/08/21 10:20:02;;;;;;;;;3.50;3.50;;;;;;;;5087139;28;45482;-79
2023/08/21 10:22:39;;;;;;;;;2.00;2.00;;;;;;;;5085009;28;45360;-81
2023/08/21 10:25:13;;;;;;;;;4.50;4.50;;;;;;;;5065873;28;45380;-83
2023/08/21 10:27:38;;;;;;;;;3.25;2.50;;;;;;;;5083372;28;45362;-82
2023/08/21 10:30:11;;;;;;;;;35.33;31.00;;;;;;;;5086808;28;45319;-78
2023/08/21 10:32:43;;;;;;;;;3.50;3.50;;;;;;;;5082832;28;45463;-81
2023/08/21 10:35:13;;;;;;;;;2.00;2.00;;;;;;;;5084478;28;45222;-81
2023/08/21 10:37:58;;;;;;;;;4.00;4.00;;;;;;;;5063641;28;45367;-80
2023/08/21 10:40:24;;;;;;;;;3.00;3.00;;;;;;;;5065088;28;47243;-79
2023/08/21 10:42:49;;;;;;;;;11.00;10.00;;;;;;;;5064283;28;47453;-79
2023/08/21 10:45:14;;;;;;;;;3.25;3.00;;;;;;;;5082820;28;45253;-76
2023/08/21 10:47:39;;;;;;;;;1.75;1.75;;;;;;;;5082167;28;45279;-77
2023/08/21 10:50:08;;;;;;;;;2.25;2.25;;;;;;;;5063067;28;46149;-77
2023/08/21 10:52:38;;;;;;;;;2.25;2.25;;;;;;;;5081649;27;46198;-77
2023/08/21 10:55:03;;;;;;;;;2.75;1.25;;;;;;;;5081078;28;45401;-76
2023/08/21 10:57:31;;;;;;;;;8.00;8.00;;;;;;;;5082221;27;45429;-78
2023/08/21 10:59:57;;;;;;;;;29.33;27.33;;;;;;;;5069309;28;47376;-77
2023/08/21 11:02:25;;;;;;;;;4.75;4.75;;;;;;;;5080142;27;45377;-76
2023/08/21 11:04:51;;;;;;;;;2.75;2.50;;;;;;;;5080280;28;45375;-77
2023/08/21 11:07:17;;;;;;;;;3.00;3.00;;;;;;;;5062080;28;45314;-77
2023/08/21 11:09:43;;;;;;;;;2.75;2.75;;;;;;;;5080254;27;45602;-77
2023/08/21 11:12:09;;;;;;;;;2.00;2.00;;;;;;;;5055977;28;47089;-77
2023/08/21 11:14:35;;;;;;;;;3.25;3.00;;;;;;;;5051263;28;45634;-76
2023/08/21 11:17:00;;;;;;;;;1.00;1.00;;;;;;;;5079463;27;45461;-77
2023/08/21 11:19:26;;;;;;;;;5.75;4.75;;;;;;;;5080376;28;45770;-78
2023/08/21 11:21:51;;;;;;;;;5.25;5.25;;;;;;;;5080172;27;45651;-77
2023/08/21 11:24:16;;;;;;;;;2.00;2.00;;;;;;;;5080223;28;45204;-78
2023/08/21 11:26:42;;;;;;;;;3.00;3.00;;;;;;;;5073480;28;45472;-78
2023/08/21 11:29:07;;;;;;;;;2.25;2.25;;;;;;;;5081118;27;45529;-76
2023/08/21 11:31:32;;;;;;;;;4.50;4.00;;;;;;;;5047790;28;48342;-75
2023/08/21 11:33:57;;;;;;;;;5.00;4.50;;;;;;;;5067588;27;45308;-75
2023/08/21 11:36:23;;;;;;;;;2.75;2.75;;;;;;;;5065189;28;45358;-78
2023/08/21 11:39:01;;;;;;;;;3.00;3.00;;;;;;;;5068745;27;45374;-76
2023/08/21 11:41:26;;;;;;;;;1.75;1.75;;;;;;;;5069226;28;45281;-76
2023/08/21 11:43:51;;;;;;;;;2.00;2.00;;;;;;;;5066172;27;45369;-75
2023/08/21 11:46:18;;;;;;;;;3.00;2.50;;;;;;;;5068895;28;45528;-76
2023/08/21 11:48:45;;;;;;;;;2.00;2.00;;;;;;;;5069799;28;45380;-76
2023/08/21 11:51:10;;;;;;;;;3.00;3.00;;;;;;;;5073487;27;46460;-78
2023/08/21 11:53:39;;;;;;;;;58.33;47.00;;;;;;;;5069492;28;45322;-76
2023/08/21 11:56:15;;;;;;;;;20.33;19.67;;;;;;;;5052095;27;45542;-76
2023/08/21 11:58:41;;;;;;;;;5.00;5.00;;;;;;;;5051999;28;47125;-76
2023/08/21 12:01:09;;;;;;;;;3.00;3.00;;;;;;;;5070469;27;46030;-78
2023/08/21 12:03:36;;;;;;;;;1.00;1.00;;;;;;;;5076517;28;45415;-78
2023/08/21 12:06:03;;;;;;;;;20.33;18.00;;;;;;;;5064832;27;45541;-81
2023/08/21 12:08:29;;;;;;;;;2.50;2.50;;;;;;;;5079385;28;45497;-79
2023/08/21 12:10:54;;;;;;;;;3.00;2.00;;;;;;;;5060402;27;47212;-77
2023/08/21 12:13:19;;;;;;;;;2.00;2.00;;;;;;;;5077385;28;45594;-77
2023/08/21 12:15:44;;;;;;;;;3.25;2.50;;;;;;;;5079470;28;45208;-77
2023/08/21 12:18:09;;;;;;;;;2.50;2.00;;;;;;;;5078219;27;45346;-78
2023/08/21 12:20:34;;;;;;;;;2.00;2.00;;;;;;;;5078828;28;46310;-78
2023/08/21 12:23:00;;;;;;;;;1.25;1.25;;;;;;;;5079162;27;45465;-78
2023/08/21 12:25:25;;;;;;;;;1.75;1.75;;;;;;;;5061109;28;45728;-78
2023/08/21 12:27:50;;;;;;;;;2.00;2.00;;;;;;;;5078532;27;45266;-77
2023/08/21 12:30:15;;;;;;;;;3.00;1.25;;;;;;;;5095745;27;45471;-78
2023/08/21 12:32:40;;;;;;;;;2.00;2.00;;;;;;;;5062922;28;45506;-78
2023/08/21 12:35:06;;;;;;;;;3.75;3.00;;;;;;;;5068495;28;45440;-78
2023/08/21 12:37:31;;;;;;;;;2.00;1.00;;;;;;;;5070970;27;46570;-77
2023/08/21 12:39:56;;;;;;;;;2.00;2.00;;;;;;;;5066448;28;45241;-81
2023/08/21 12:42:21;;;;;;;;;2.75;2.75;;;;;;;;5071011;27;45348;-76
2023/08/21 12:44:47;;;;;;;;;4.25;3.75;;;;;;;;5066196;28;45291;-78
2023/08/21 12:47:12;;;;;;;;;0.75;0.75;;;;;;;;5073753;27;45212;-77
2023/08/21 12:49:37;;;;;;;;;2.00;1.00;;;;;;;;5071576;28;46283;-77
2023/08/21 12:52:04;;;;;;;;;4.00;2.75;;;;;;;;5072044;27;45285;-76
2023/08/21 12:54:29;;;;;;;;;10.00;9.00;;;;;;;;5059420;28;45418;-73
2023/08/21 12:56:56;;;;;;;;;3.00;3.00;;;;;;;;5070259;27;45367;-73
2023/08/21 12:59:21;;;;;;;;;1.00;1.00;;;;;;;;5065321;28;45395;-74
2023/08/21 13:01:46;;;;;;;;;2.00;2.00;;;;;;;;5069840;27;45400;-74
2023/08/21 13:04:12;;;;;;;;;3.25;3.25;;;;;;;;5067634;28;45381;-74
2023/08/21 13:06:37;;;;;;;;;2.50;2.50;;;;;;;;5069713;27;45351;-74
2023/08/21 13:09:03;;;;;;;;;1.50;1.50;;;;;;;;5048429;28;48173;-76
2023/08/21 13:11:29;;;;;;;;;2.00;2.00;;;;;;;;5067035;28;45335;-74
2023/08/21 13:13:54;;;;;;;;;1.75;1.75;;;;;;;;5049199;28;45630;-77
2023/08/21 13:16:20;;;;;;;;;1.33;1.33;;;;;;;;5050825;28;47332;-75
2023/08/21 13:18:45;;;;;;;;;0.25;0.25;;;;;;;;5064879;28;45445;-74
2023/08/21 13:21:10;;;;;;;;;1.75;1.50;;;;;;;;5048117;28;45462;-75
2023/08/21 13:23:35;;;;;;;;;2.00;1.00;;;;;;;;5063679;28;45738;-74
2023/08/21 13:26:01;;;;;;;;;1.00;1.00;;;;;;;;5069042;28;45280;-74
2023/08/21 13:28:26;;;;;;;;;2.00;2.00;;;;;;;;5067507;27;45390;-75
2023/08/21 13:30:52;;;;;;;;;3.00;3.00;;;;;;;;5050463;28;45455;-75
2023/08/21 13:33:18;;;;;;;;;2.00;2.00;;;;;;;;5070147;28;45600;-75
2023/08/21 13:35:44;;;;;;;;;1.00;1.00;;;;;;;;5044386;28;46100;-74
2023/08/21 13:38:09;;;;;;;;;1.00;1.00;;;;;;;;5039926;28;47501;-76
2023/08/21 13:40:34;;;;;;;;;3.50;2.50;;;;;;;;5069572;28;45409;-75
2023/08/21 13:43:00;;;;;;;;;1.00;1.00;;;;;;;;5063466;28;45382;-74
2023/08/21 13:45:25;;;;;;;;;1.00;1.00;;;;;;;;5082966;28;45836;-79
2023/08/21 13:47:50;;;;;;;;;0.75;0.75;;;;;;;;5082464;28;45962;-75
2023/08/21 13:50:16;;;;;;;;;2.50;2.50;;;;;;;;5082148;28;45623;-76
2023/08/21 13:52:42;;;;;;;;;2.50;1.75;;;;;;;;5082068;28;45407;-76
2023/08/21 13:55:08;;;;;;;;;8.75;8.00;;;;;;;;5066839;28;45767;-75
2023/08/21 13:57:33;;;;;;;;;2.00;2.00;;;;;;;;5078432;28;45306;-76
2023/08/21 13:59:59;;;;;;;;;2.75;2.75;;;;;;;;5055251;28;45465;-77
2023/08/21 14:02:24;;;;;;;;;1.00;1.00;;;;;;;;5064509;28;45839;-78
2023/08/21 14:04:49;;;;;;;;;0.50;0.50;;;;;;;;5068676;28;45646;-78
2023/08/21 14:07:15;;;;;;;;;3.00;3.00;;;;;;;;5045884;28;47137;-80
2023/08/21 14:09:40;;;;;;;;;2.00;2.00;;;;;;;;5060948;28;45307;-77
2023/08/21 14:12:06;;;;;;;;;14.67;13.33;;;;;;;;5061333;28;45261;-76
2023/08/21 14:14:32;;;;;;;;;2.00;2.00;;;;;;;;5060788;28;45586;-76
2023/08/21 14:16:58;;;;;;;;;2.00;2.00;;;;;;;;5060228;28;46053;-77
2023/08/21 14:19:23;;;;;;;;;1.50;1.50;;;;;;;;5061199;28;45461;-76
2023/08/21 14:21:48;;;;;;;;;2.50;2.50;;;;;;;;5043319;28;45375;-75
2023/08/21 14:24:14;;;;;;;;;2.00;2.00;;;;;;;;5043418;28;45603;-77
2023/08/21 14:26:40;;;;;;;;;4.50;4.50;;;;;;;;5062152;28;46168;-78
2023/08/21 14:29:05;;;;;;;;;3.50;3.50;;;;;;;;5076872;27;45330;-76
2023/08/21 14:31:30;;;;;;;;;2.00;1.50;;;;;;;;5072932;27;45857;-76
2023/08/21 14:33:55;;;;;;;;;3.00;3.00;;;;;;;;5043376;28;46196;-75